sensor_id;sensor_type;location;lat;lon;timestamp;pressure;altitude;pressure_sealevel;temperature;humidity
8627;BME280;4351;51.422;6.794;2022-09-17T00:01:28;98383.97;;;11.61;100.00
8627;BME280;4351;51.422;6.794;2022-09-17T00:03:59;98383.38;;;11.76;100.00
8627;BME280;4351;51.422;6.794;2022-09-17T00:06:32;98402.56;;;11.65;100.00
8627;BME280;4351;51.422;6.794;2022-09-17T00:09:00;98389.28;;;11.71;100.00
8627;BME280;4351;51.422;6.794;2022-09-17T00:11:31;98403.41;;;11.65;100.00
8627;BME280;4351;51.422;6.794;2022-09-17T00:14:02;98415.91;;;11.66;100.00
8627;BME280;4351;51.422;6.794;2022-09-17T00:16:34;98425.78;;;11.76;100.00
8627;BME280;4351;51.422;6.794;2022-09-17T00:19:04;98420.69;;;11.72;100.00
8627;BME280;4351;51.422;6.794;2022-09-17T00:21:32;98409.41;;;11.77;100.00
8627;BME280;4351;51.422;6.794;2022-09-17T00:24:03;98427.22;;;11.70;100.00
8627;BME280;4351;51.422;6.794;2022-09-17T00:26:32;98427.19;;;11.61;100.00
8627;BME280;4351;51.422;6.794;2022-09-17T00:29:00;98433.28;;;11.64;100.00
8627;BME280;4351;51.422;6.794;2022-09-17T00:31:29;98437.97;;;11.61;100.00
8627;BME280;4351;51.422;6.794;2022-09-17T00:34:00;98442.69;;;11.59;100.00
8627;BME280;4351;51.422;6.794;2022-09-17T00:36:33;98453.50;;;11.59;100.00
8627;BME280;4351;51.422;6.794;2022-09-17T00:39:02;98457.34;;;11.57;100.00
8627;BME280;4351;51.422;6.794;2022-09-17T00:41:32;98482.50;;;11.57;100.00
8627;BME280;4351;51.422;6.794;2022-09-17T00:44:45;98494.97;;;11.58;100.00
8627;BME280;4351;51.422;6.794;2022-09-17T00:47:18;98527.53;;;11.57;100.00
8627;BME280;4351;51.422;6.794;2022-09-17T00:49:55;98565.78;;;11.52;100.00
8627;BME280;4351;51.422;6.794;2022-09-17T00:52:32;98601.91;;;11.51;100.00
8627;BME280;4351;51.422;6.794;2022-09-17T00:55:06;98635.75;;;11.45;100.00
8627;BME280;4351;51.422;6.794;2022-09-17T00:57:36;98678.66;;;11.48;100.00
8627;BME280;4351;51.422;6.794;2022-09-17T01:00:06;98721.69;;;11.50;100.00
8627;BME280;4351;51.422;6.794;2022-09-17T01:02:35;98765.63;;;11.42;100.00
8627;BME280;4351;51.422;6.794;2022-09-17T01:05:04;98827.56;;;11.44;100.00
8627;BME280;4351;51.422;6.794;2022-09-17T01:07:41;98878.41;;;11.58;100.00
8627;BME280;4351;51.422;6.794;2022-09-17T01:10:22;98896.31;;;11.59;100.00
8627;BME280;4351;51.422;6.794;2022-09-17T01:13:01;98919.50;;;11.42;100.00
8627;BME280;4351;51.422;6.794;2022-09-17T01:15:40;98907.72;;;11.53;100.00
8627;BME280;4351;51.422;6.794;2022-09-17T01:18:20;98916.78;;;11.52;100.00
8627;BME280;4351;51.422;6.794;2022-09-17T01:21:15;98911.13;;;11.55;100.00
8627;BME280;4351;51.422;6.794;2022-09-17T01:24:04;98924.22;;;11.40;100.00
8627;BME280;4351;51.422;6.794;2022-09-17T01:27:03;98914.78;;;11.54;100.00
8627;BME280;4351;51.422;6.794;2022-09-17T01:29:52;98899.88;;;11.50;100.00
8627;BME280;4351;51.422;6.794;2022-09-17T01:32:27;98899.19;;;11.48;100.00
8627;BME280;4351;51.422;6.794;2022-09-17T01:35:02;98894.06;;;11.55;100.00
8627;BME280;4351;51.422;6.794;2022-09-17T01:37:35;98894.91;;;11.55;100.00
8627;BME280;4351;51.422;6.794;2022-09-17T01:40:07;98893.78;;;11.58;100.00
8627;BME280;4351;51.422;6.794;2022-09-17T01:42:43;98889.22;;;11.58;100.00
8627;BME280;4351;51.422;6.794;2022-09-17T01:45:17;98868.91;;;11.54;100.00
8627;BME280;4351;51.422;6.794;2022-09-17T01:47:53;98843.19;;;11.60;100.00
8627;BME280;4351;51.422;6.794;2022-09-17T01:50:28;98828.38;;;11.54;100.00
8627;BME280;4351;51.422;6.794;2022-09-17T01:52:57;98807.63;;;11.65;100.00
8627;BME280;4351;51.422;6.794;2022-09-17T01:55:30;98804.66;;;11.58;100.00
8627;BME280;4351;51.422;6.794;2022-09-17T01:58:04;98800.69;;;11.52;100.00
8627;BME280;4351;51.422;6.794;2022-09-17T02:00:35;98792.84;;;11.59;100.00
8627;BME280;4351;51.422;6.794;2022-09-17T02:03:12;98810.91;;;11.58;100.00
8627;BME280;4351;51.422;6.794;2022-09-17T02:05:44;98811.31;;;11.64;100.00
8627;BME280;4351;51.422;6.794;2022-09-17T02:08:18;98793.72;;;11.59;100.00
8627;BME280;4351;51.422;6.794;2022-09-17T02:10:49;98767.56;;;11.60;100.00
8627;BME280;4351;51.422;6.794;2022-09-17T02:13:22;98751.91;;;11.64;100.00
8627;BME280;4351;51.422;6.794;2022-09-17T02:15:55;98722.91;;;11.66;100.00
8627;BME280;4351;51.422;6.794;2022-09-17T02:18:28;98715.56;;;11.58;100.00
8627;BME280;4351;51.422;6.794;2022-09-17T02:21:07;98694.78;;;11.58;100.00
8627;BME280;4351;51.422;6.794;2022-09-17T02:23:43;98672.91;;;11.61;100.00
8627;BME280;4351;51.422;6.794;2022-09-17T02:26:16;98653.38;;;11.68;100.00
8627;BME280;4351;51.422;6.794;2022-09-17T02:28:48;98643.91;;;11.64;100.00
8627;BME280;4351;51.422;6.794;2022-09-17T02:31:18;98644.09;;;11.52;100.00
8627;BME280;4351;51.422;6.794;2022-09-17T02:33:50;98626.59;;;11.56;100.00
8627;BME280;4351;51.422;6.794;2022-09-17T02:36:19;98622.03;;;11.57;100.00
8627;BME280;4351;51.422;6.794;2022-09-17T02:38:57;98639.72;;;11.51;100.00
8627;BME280;4351;51.422;6.794;2022-09-17T02:41:35;98638.19;;;11.67;100.00
8627;BME280;4351;51.422;6.794;2022-09-17T02:44:16;98645.03;;;11.61;100.00
8627;BME280;4351;51.422;6.794;2022-09-17T02:47:02;98651.03;;;11.55;100.00
8627;BME280;4351;51.422;6.794;2022-09-17T02:49:47;98645.72;;;11.63;100.00
8627;BME280;4351;51.422;6.794;2022-09-17T02:52:28;98620.59;;;11.63;100.00
8627;BME280;4351;51.422;6.794;2022-09-17T02:55:05;98595.06;;;11.75;100.00
8627;BME280;4351;51.422;6.794;2022-09-17T02:57:39;98570.38;;;11.52;100.00
8627;BME280;4351;51.422;6.794;2022-09-17T03:00:13;98549.84;;;11.59;100.00
8627;BME280;4351;51.422;6.794;2022-09-17T03:02:44;98537.03;;;11.61;100.00
8627;BME280;4351;51.422;6.794;2022-09-17T03:05:17;98533.28;;;11.54;100.00
8627;BME280;4351;51.422;6.794;2022-09-17T03:07:45;98531.78;;;11.59;100.00
8627;BME280;4351;51.422;6.794;2022-09-17T03:10:13;98520.31;;;11.57;100.00
8627;BME280;4351;51.422;6.794;2022-09-17T03:12:41;98519.22;;;11.50;100.00
8627;BME280;4351;51.422;6.794;2022-09-17T03:15:09;98519.53;;;11.47;100.00
8627;BME280;4351;51.422;6.794;2022-09-17T03:17:37;98514.66;;;11.50;100.00
8627;BME280;4351;51.422;6.794;2022-09-17T03:20:06;98491.75;;;11.73;100.00
8627;BME280;4351;51.422;6.794;2022-09-17T03:22:36;98475.84;;;11.70;100.00
8627;BME280;4351;51.422;6.794;2022-09-17T03:25:04;98468.66;;;11.79;100.00
8627;BME280;4351;51.422;6.794;2022-09-17T03:27:32;98449.00;;;11.68;100.00
8627;BME280;4351;51.422;6.794;2022-09-17T03:30:00;98440.03;;;11.68;100.00
8627;BME280;4351;51.422;6.794;2022-09-17T03:32:28;98434.97;;;11.65;100.00
8627;BME280;4351;51.422;6.794;2022-09-17T03:34:57;98420.91;;;11.79;100.00
8627;BME280;4351;51.422;6.794;2022-09-17T03:37:24;98418.84;;;11.73;100.00
8627;BME280;4351;51.422;6.794;2022-09-17T03:39:59;98420.00;;;11.70;100.00
8627;BME280;4351;51.422;6.794;2022-09-17T03:42:27;98422.84;;;11.69;100.00
8627;BME280;4351;51.422;6.794;2022-09-17T03:44:55;98421.47;;;11.65;100.00
8627;BME280;4351;51.422;6.794;2022-09-17T03:47:23;98419.47;;;11.67;100.00
8627;BME280;4351;51.422;6.794;2022-09-17T03:49:51;98412.78;;;11.79;100.00
8627;BME280;4351;51.422;6.794;2022-09-17T03:52:19;98415.50;;;11.79;100.00
8627;BME280;4351;51.422;6.794;2022-09-17T03:54:47;98422.44;;;11.82;100.00
8627;BME280;4351;51.422;6.794;2022-09-17T03:57:17;98423.75;;;11.78;100.00
8627;BME280;4351;51.422;6.794;2022-09-17T03:59:45;98434.72;;;11.76;100.00
8627;BME280;4351;51.422;6.794;2022-09-17T04:02:13;98429.16;;;11.78;100.00
8627;BME280;4351;51.422;6.794;2022-09-17T04:04:41;98436.81;;;11.82;100.00
8627;BME280;4351;51.422;6.794;2022-09-17T04:07:09;98435.09;;;11.81;100.00
8627;BME280;4351;51.422;6.794;2022-09-17T04:09:37;98438.44;;;11.75;100.00
8627;BME280;4351;51.422;6.794;2022-09-17T04:12:05;98445.22;;;11.61;100.00
8627;BME280;4351;51.422;6.794;2022-09-17T04:14:34;98440.88;;;11.87;100.00
8627;BME280;4351;51.422;6.794;2022-09-17T04:17:02;98440.97;;;11.77;100.00
8627;BME280;4351;51.422;6.794;2022-09-17T04:19:30;98443.81;;;11.75;100.00
8627;BME280;4351;51.422;6.794;2022-09-17T04:21:58;98449.59;;;11.80;100.00
8627;BME280;4351;51.422;6.794;2022-09-17T04:24:27;98464.97;;;11.80;100.00
8627;BME280;4351;51.422;6.794;2022-09-17T04:26:54;98476.69;;;11.70;100.00
8627;BME280;4351;51.422;6.794;2022-09-17T04:29:22;98497.09;;;11.65;100.00
8627;BME280;4351;51.422;6.794;2022-09-17T04:31:53;98515.66;;;11.68;100.00
8627;BME280;4351;51.422;6.794;2022-09-17T04:34:20;98519.75;;;11.72;100.00
8627;BME280;4351;51.422;6.794;2022-09-17T04:36:48;98514.56;;;11.79;100.00
8627;BME280;4351;51.422;6.794;2022-09-17T04:39:16;98511.25;;;11.85;100.00
8627;BME280;4351;51.422;6.794;2022-09-17T04:41:44;98503.59;;;11.80;100.00
8627;BME280;4351;51.422;6.794;2022-09-17T04:44:13;98493.44;;;11.74;100.00
8627;BME280;4351;51.422;6.794;2022-09-17T04:46:41;98507.94;;;11.73;100.00
8627;BME280;4351;51.422;6.794;2022-09-17T04:49:10;98521.06;;;11.68;100.00
8627;BME280;4351;51.422;6.794;2022-09-17T04:51:38;98539.59;;;11.63;100.00
8627;BME280;4351;51.422;6.794;2022-09-17T04:54:06;98559.78;;;11.58;100.00
8627;BME280;4351;51.422;6.794;2022-09-17T04:56:34;98584.81;;;11.60;100.00
8627;BME280;4351;51.422;6.794;2022-09-17T04:59:02;98595.59;;;11.60;100.00
8627;BME280;4351;51.422;6.794;2022-09-17T05:01:30;98609.00;;;11.52;100.00
8627;BME280;4351;51.422;6.794;2022-09-17T05:03:58;98624.13;;;11.45;100.00
8627;BME280;4351;51.422;6.794;2022-09-17T05:06:27;98630.59;;;11.52;100.00
8627;BME280;4351;51.422;6.794;2022-09-17T05:08:55;98645.34;;;11.58;100.00
8627;BME280;4351;51.422;6.794;2022-09-17T05:11:23;98649.72;;;11.41;100.00
8627;BME280;4351;51.422;6.794;2022-09-17T05:13:51;98658.50;;;11.43;100.00
8627;BME280;4351;51.422;6.794;2022-09-17T05:16:19;98679.00;;;11.35;100.00
8627;BME280;4351;51.422;6.794;2022-09-17T05:18:48;98688.94;;;11.35;100.00
8627;BME280;4351;51.422;6.794;2022-09-17T05:21:17;98702.59;;;11.33;100.00
8627;BME280;4351;51.422;6.794;2022-09-17T05:23:47;98704.16;;;11.36;100.00
8627;BME280;4351;51.422;6.794;2022-09-17T05:26:15;98710.28;;;11.28;100.00
8627;BME280;4351;51.422;6.794;2022-09-17T05:28:43;98713.38;;;11.33;100.00
8627;BME280;4351;51.422;6.794;2022-09-17T05:31:11;98712.53;;;11.33;100.00
8627;BME280;4351;51.422;6.794;2022-09-17T05:33:39;98716.53;;;11.29;100.00
8627;BME280;4351;51.422;6.794;2022-09-17T05:36:07;98720.19;;;11.37;100.00
8627;BME280;4351;51.422;6.794;2022-09-17T05:38:35;98703.38;;;11.44;100.00
8627;BME280;4351;51.422;6.794;2022-09-17T05:41:05;98684.94;;;11.39;100.00
8627;BME280;4351;51.422;6.794;2022-09-17T05:43:33;98704.28;;;11.34;100.00
8627;BME280;4351;51.422;6.794;2022-09-17T05:46:02;98711.53;;;11.34;100.00
8627;BME280;4351;51.422;6.794;2022-09-17T05:48:31;98719.38;;;11.27;100.00
8627;BME280;4351;51.422;6.794;2022-09-17T05:50:59;98722.03;;;11.37;100.00
8627;BME280;4351;51.422;6.794;2022-09-17T05:53:27;98716.88;;;11.44;100.00
8627;BME280;4351;51.422;6.794;2022-09-17T05:55:55;98721.75;;;11.40;100.00
8627;BME280;4351;51.422;6.794;2022-09-17T05:58:25;98724.88;;;11.35;100.00
8627;BME280;4351;51.422;6.794;2022-09-17T06:00:53;98721.63;;;11.32;100.00
8627;BME280;4351;51.422;6.794;2022-09-17T06:03:21;98706.53;;;11.39;100.00
8627;BME280;4351;51.422;6.794;2022-09-17T06:05:54;98715.78;;;11.36;100.00
8627;BME280;4351;51.422;6.794;2022-09-17T06:08:24;98712.94;;;11.38;100.00
8627;BME280;4351;51.422;6.794;2022-09-17T06:10:53;98722.34;;;11.34;100.00
8627;BME280;4351;51.422;6.794;2022-09-17T06:13:28;98721.63;;;11.32;100.00
8627;BME280;4351;51.422;6.794;2022-09-17T06:15:56;98734.16;;;11.23;100.00
8627;BME280;4351;51.422;6.794;2022-09-17T06:18:24;98727.59;;;11.35;100.00
8627;BME280;4351;51.422;6.794;2022-09-17T06:20:54;98726.72;;;11.35;100.00
8627;BME280;4351;51.422;6.794;2022-09-17T06:23:23;98729.72;;;11.32;100.00
8627;BME280;4351;51.422;6.794;2022-09-17T06:25:52;98740.97;;;11.27;100.00
8627;BME280;4351;51.422;6.794;2022-09-17T06:28:21;98747.22;;;11.27;100.00
8627;BME280;4351;51.422;6.794;2022-09-17T06:30:51;98754.72;;;11.34;100.00
8627;BME280;4351;51.422;6.794;2022-09-17T06:33:24;98765.97;;;11.29;100.00
8627;BME280;4351;51.422;6.794;2022-09-17T06:35:55;98781.03;;;11.32;100.00
8627;BME280;4351;51.422;6.794;2022-09-17T06:38:26;98788.00;;;11.24;100.00
8627;BME280;4351;51.422;6.794;2022-09-17T06:40:55;98781.41;;;11.37;100.00
8627;BME280;4351;51.422;6.794;2022-09-17T06:43:25;98786.22;;;11.43;100.00
8627;BME280;4351;51.422;6.794;2022-09-17T06:45:58;98784.38;;;11.44;100.00
8627;BME280;4351;51.422;6.794;2022-09-17T06:48:27;98780.25;;;11.49;100.00
8627;BME280;4351;51.422;6.794;2022-09-17T06:51:00;98759.38;;;11.52;100.00
8627;BME280;4351;51.422;6.794;2022-09-17T06:53:30;98734.66;;;11.46;100.00
8627;BME280;4351;51.422;6.794;2022-09-17T06:55:59;98728.38;;;11.56;100.00
8627;BME280;4351;51.422;6.794;2022-09-17T06:58:32;98721.00;;;11.48;100.00
8627;BME280;4351;51.422;6.794;2022-09-17T07:01:04;98712.59;;;11.51;100.00
8627;BME280;4351;51.422;6.794;2022-09-17T07:03:33;98698.50;;;11.57;100.00
8627;BME280;4351;51.422;6.794;2022-09-17T07:06:02;98689.69;;;11.55;100.00
8627;BME280;4351;51.422;6.794;2022-09-17T07:08:32;98667.50;;;11.61;100.00
8627;BME280;4351;51.422;6.794;2022-09-17T07:11:04;98648.75;;;11.60;100.00
8627;BME280;4351;51.422;6.794;2022-09-17T07:13:32;98632.19;;;11.73;100.00
8627;BME280;4351;51.422;6.794;2022-09-17T07:16:01;98616.97;;;11.72;100.00
8627;BME280;4351;51.422;6.794;2022-09-17T07:18:32;98602.78;;;11.88;100.00
8627;BME280;4351;51.422;6.794;2022-09-17T07:21:01;98595.28;;;12.00;100.00
8627;BME280;4351;51.422;6.794;2022-09-17T07:23:31;98595.28;;;12.00;100.00
8627;BME280;4351;51.422;6.794;2022-09-17T07:26:03;98599.00;;;11.99;100.00
8627;BME280;4351;51.422;6.794;2022-09-17T07:28:33;98576.94;;;12.04;100.00
8627;BME280;4351;51.422;6.794;2022-09-17T07:31:02;98581.41;;;11.95;100.00
8627;BME280;4351;51.422;6.794;2022-09-17T07:33:33;98568.59;;;11.97;100.00
8627;BME280;4351;51.422;6.794;2022-09-17T07:36:13;98573.59;;;11.92;100.00
8627;BME280;4351;51.422;6.794;2022-09-17T07:38:52;98571.75;;;11.92;100.00
8627;BME280;4351;51.422;6.794;2022-09-17T07:41:20;98582.34;;;11.86;100.00
8627;BME280;4351;51.422;6.794;2022-09-17T07:43:52;98582.63;;;12.01;100.00
8627;BME280;4351;51.422;6.794;2022-09-17T07:46:21;98589.19;;;11.98;100.00
8627;BME280;4351;51.422;6.794;2022-09-17T07:48:52;98588.72;;;12.03;100.00
8627;BME280;4351;51.422;6.794;2022-09-17T07:51:22;98588.34;;;12.16;100.00
8627;BME280;4351;51.422;6.794;2022-09-17T07:53:52;98586.06;;;12.21;100.00
8627;BME280;4351;51.422;6.794;2022-09-17T07:56:21;98581.16;;;12.25;100.00
8627;BME280;4351;51.422;6.794;2022-09-17T07:58:49;98570.81;;;12.65;100.00
8627;BME280;4351;51.422;6.794;2022-09-17T08:01:18;98581.19;;;12.51;100.00
8627;BME280;4351;51.422;6.794;2022-09-17T08:03:48;98599.31;;;12.33;100.00
8627;BME280;4351;51.422;6.794;2022-09-17T08:06:20;98593.97;;;12.41;100.00
8627;BME280;4351;51.422;6.794;2022-09-17T08:08:49;98576.41;;;12.45;100.00
8627;BME280;4351;51.422;6.794;2022-09-17T08:11:19;98574.25;;;12.75;100.00
8627;BME280;4351;51.422;6.794;2022-09-17T08:14:09;98558.41;;;12.89;100.00
8627;BME280;4351;51.422;6.794;2022-09-17T08:16:38;98572.81;;;12.90;100.00
8627;BME280;4351;51.422;6.794;2022-09-17T08:19:06;98578.66;;;12.76;100.00
8627;BME280;4351;51.422;6.794;2022-09-17T08:21:38;98575.59;;;12.80;100.00
8627;BME280;4351;51.422;6.794;2022-09-17T08:24:06;98573.16;;;12.95;100.00
8627;BME280;4351;51.422;6.794;2022-09-17T08:26:34;98591.56;;;12.91;100.00
8627;BME280;4351;51.422;6.794;2022-09-17T08:29:02;98597.38;;;12.70;100.00
8627;BME280;4351;51.422;6.794;2022-09-17T08:31:31;98552.66;;;13.27;100.00
8627;BME280;4351;51.422;6.794;2022-09-17T08:33:59;98592.97;;;13.04;100.00
8627;BME280;4351;51.422;6.794;2022-09-17T08:36:27;98590.19;;;13.22;100.00
8627;BME280;4351;51.422;6.794;2022-09-17T08:38:57;98600.94;;;13.05;100.00
8627;BME280;4351;51.422;6.794;2022-09-17T08:41:33;98599.28;;;13.13;100.00
8627;BME280;4351;51.422;6.794;2022-09-17T08:44:14;98621.47;;;13.16;100.00
8627;BME280;4351;51.422;6.794;2022-09-17T08:46:46;98604.22;;;13.26;100.00
8627;BME280;4351;51.422;6.794;2022-09-17T08:49:24;98616.06;;;13.16;100.00
8627;BME280;4351;51.422;6.794;2022-09-17T08:52:10;98622.84;;;13.20;100.00
8627;BME280;4351;51.422;6.794;2022-09-17T08:54:48;98622.75;;;13.47;100.00
8627;BME280;4351;51.422;6.794;2022-09-17T08:57:27;98653.69;;;13.36;100.00
8627;BME280;4351;51.422;6.794;2022-09-17T09:00:02;98670.00;;;13.53;100.00
8627;BME280;4351;51.422;6.794;2022-09-17T09:02:42;98668.25;;;13.70;100.00
8627;BME280;4351;51.422;6.794;2022-09-17T09:05:16;98681.84;;;13.52;100.00
8627;BME280;4351;51.422;6.794;2022-09-17T09:07:51;98670.84;;;13.97;100.00
8627;BME280;4351;51.422;6.794;2022-09-17T09:10:24;98696.88;;;13.73;100.00
8627;BME280;4351;51.422;6.794;2022-09-17T09:12:55;98762.47;;;13.93;100.00
8627;BME280;4351;51.422;6.794;2022-09-17T09:15:39;98861.53;;;13.87;100.00
8627;BME280;4351;51.422;6.794;2022-09-17T09:18:16;98946.75;;;13.66;100.00
8627;BME280;4351;51.422;6.794;2022-09-17T09:20:49;98994.91;;;13.73;100.00
8627;BME280;4351;51.422;6.794;2022-09-17T09:23:25;99017.94;;;13.95;100.00
8627;BME280;4351;51.422;6.794;2022-09-17T09:26:04;99053.09;;;14.05;100.00
8627;BME280;4351;51.422;6.794;2022-09-17T09:28:47;99065.09;;;14.02;100.00
8627;BME280;4351;51.422;6.794;2022-09-17T09:34:09;99095.13;;;13.91;100.00
8627;BME280;4351;51.422;6.794;2022-09-17T09:36:38;99090.94;;;14.15;100.00
8627;BME280;4351;51.422;6.794;2022-09-17T09:39:13;99100.91;;;14.33;100.00
8627;BME280;4351;51.422;6.794;2022-09-17T09:41:47;99119.63;;;13.99;100.00
8627;BME280;4351;51.422;6.794;2022-09-17T09:44:16;99121.63;;;14.16;100.00
8627;BME280;4351;51.422;6.794;2022-09-17T09:47:16;99123.09;;;14.10;100.00
8627;BME280;4351;51.422;6.794;2022-09-17T09:49:59;99121.47;;;13.99;100.00
8627;BME280;4351;51.422;6.794;2022-09-17T09:52:43;99122.09;;;13.93;100.00
8627;BME280;4351;51.422;6.794;2022-09-17T09:55:33;99112.84;;;14.22;100.00
8627;BME280;4351;51.422;6.794;2022-09-17T09:58:13;99107.44;;;14.22;100.00
8627;BME280;4351;51.422;6.794;2022-09-17T10:00:44;99091.72;;;14.25;100.00
8627;BME280;4351;51.422;6.794;2022-09-17T10:03:17;99097.13;;;14.25;100.00
8627;BME280;4351;51.422;6.794;2022-09-17T10:05:54;99088.63;;;14.20;100.00
8627;BME280;4351;51.422;6.794;2022-09-17T10:08:24;99082.81;;;14.42;100.00
8627;BME280;4351;51.422;6.794;2022-09-17T10:10:54;99089.72;;;14.09;100.00
8627;BME280;4351;51.422;6.794;2022-09-17T10:13:25;99055.25;;;14.01;100.00
8627;BME280;4351;51.422;6.794;2022-09-17T10:15:53;99003.16;;;13.89;100.00
8627;BME280;4351;51.422;6.794;2022-09-17T10:18:23;98955.09;;;14.00;100.00
8627;BME280;4351;51.422;6.794;2022-09-17T10:20:57;98929.97;;;13.89;100.00
8627;BME280;4351;51.422;6.794;2022-09-17T10:23:27;98875.91;;;13.79;100.00
8627;BME280;4351;51.422;6.794;2022-09-17T10:25:56;98858.75;;;13.71;100.00
8627;BME280;4351;51.422;6.794;2022-09-17T10:28:35;98843.47;;;13.70;100.00
8627;BME280;4351;51.422;6.794;2022-09-17T10:31:07;98848.72;;;13.71;100.00
8627;BME280;4351;51.422;6.794;2022-09-17T10:33:51;98850.47;;;14.07;100.00
8627;BME280;4351;51.422;6.794;2022-09-17T10:36:40;98889.22;;;13.73;100.00
8627;BME280;4351;51.422;6.794;2022-09-17T10:39:33;98873.28;;;13.70;100.00
8627;BME280;4351;51.422;6.794;2022-09-17T10:42:03;98866.13;;;13.42;100.00
8627;BME280;4351;51.422;6.794;2022-09-17T10:44:35;98825.47;;;13.33;100.00
8627;BME280;4351;51.422;6.794;2022-09-17T10:47:05;98786.31;;;13.28;100.00
8627;BME280;4351;51.422;6.794;2022-09-17T10:49:37;98720.56;;;13.71;100.00
8627;BME280;4351;51.422;6.794;2022-09-17T10:52:21;98752.59;;;13.49;100.00
8627;BME280;4351;51.422;6.794;2022-09-17T10:55:14;98765.94;;;13.68;100.00
8627;BME280;4351;51.422;6.794;2022-09-17T10:58:11;98771.53;;;14.10;100.00
8627;BME280;4351;51.422;6.794;2022-09-17T11:00:57;98805.91;;;14.10;100.00
8627;BME280;4351;51.422;6.794;2022-09-17T11:03:54;98800.94;;;14.48;100.00
8627;BME280;4351;51.422;6.794;2022-09-17T11:09:34;98902.56;;;14.71;100.00
8627;BME280;4351;51.422;6.794;2022-09-17T11:12:17;98969.59;;;14.44;100.00
8627;BME280;4351;51.422;6.794;2022-09-17T11:14:50;99043.28;;;14.66;100.00
8627;BME280;4351;51.422;6.794;2022-09-17T11:17:36;99119.59;;;14.36;100.00
8627;BME280;4351;51.422;6.794;2022-09-17T11:20:19;99145.00;;;13.80;100.00
8627;BME280;4351;51.422;6.794;2022-09-17T11:22:57;99156.59;;;13.44;100.00
8627;BME280;4351;51.422;6.794;2022-09-17T11:25:44;99109.16;;;13.40;100.00
8627;BME280;4351;51.422;6.794;2022-09-17T11:28:31;99078.19;;;13.24;100.00
8627;BME280;4351;51.422;6.794;2022-09-17T11:31:15;99068.22;;;12.96;100.00
8627;BME280;4351;51.422;6.794;2022-09-17T11:34:07;99053.84;;;12.86;100.00
8627;BME280;4351;51.422;6.794;2022-09-17T11:36:45;99046.66;;;12.76;100.00
8627;BME280;4351;51.422;6.794;2022-09-17T11:39:19;99028.78;;;12.66;100.00
8627;BME280;4351;51.422;6.794;2022-09-17T11:41:51;99007.59;;;12.51;100.00
8627;BME280;4351;51.422;6.794;2022-09-17T11:44:23;98979.06;;;12.67;100.00
8627;BME280;4351;51.422;6.794;2022-09-17T11:46:57;98979.72;;;12.50;100.00
8627;BME280;4351;51.422;6.794;2022-09-17T11:49:34;98957.50;;;12.47;100.00
8627;BME280;4351;51.422;6.794;2022-09-17T11:52:13;98945.00;;;12.46;100.00
8627;BME280;4351;51.422;6.794;2022-09-17T11:54:47;98971.00;;;12.57;100.00
8627;BME280;4351;51.422;6.794;2022-09-17T11:57:18;98974.69;;;12.56;100.00
8627;BME280;4351;51.422;6.794;2022-09-17T11:59:51;98983.94;;;12.63;100.00
8627;BME280;4351;51.422;6.794;2022-09-17T12:02:22;98979.00;;;12.48;100.00
8627;BME280;4351;51.422;6.794;2022-09-17T12:04:57;98955.47;;;12.59;100.00
8627;BME280;4351;51.422;6.794;2022-09-17T12:07:34;98966.22;;;12.40;100.00
8627;BME280;4351;51.422;6.794;2022-09-17T12:10:24;98964.91;;;12.55;100.00
8627;BME280;4351;51.422;6.794;2022-09-17T12:12:58;98965.72;;;12.55;100.00
8627;BME280;4351;51.422;6.794;2022-09-17T12:15:29;98957.38;;;12.76;100.00
8627;BME280;4351;51.422;6.794;2022-09-17T12:18:10;98978.88;;;12.50;100.00
8627;BME280;4351;51.422;6.794;2022-09-17T12:21:01;98969.16;;;12.19;100.00
8627;BME280;4351;51.422;6.794;2022-09-17T12:23:36;98912.31;;;12.39;100.00
8627;BME280;4351;51.422;6.794;2022-09-17T12:26:13;98920.44;;;11.91;100.00
8627;BME280;4351;51.422;6.794;2022-09-17T12:28:49;98914.47;;;11.77;100.00
8627;BME280;4351;51.422;6.794;2022-09-17T12:31:24;98799.94;;;12.26;100.00
8627;BME280;4351;51.422;6.794;2022-09-17T12:33:57;98730.94;;;12.50;100.00
8627;BME280;4351;51.422;6.794;2022-09-17T12:36:40;98728.19;;;12.69;100.00
8627;BME280;4351;51.422;6.794;2022-09-17T12:42:44;98636.06;;;13.32;100.00
8627;BME280;4351;51.422;6.794;2022-09-17T12:48:13;98634.63;;;13.54;100.00
8627;BME280;4351;51.422;6.794;2022-09-17T12:50:52;98631.69;;;13.74;100.00
8627;BME280;4351;51.422;6.794;2022-09-17T12:53:28;98619.69;;;13.94;100.00
8627;BME280;4351;51.422;6.794;2022-09-17T12:56:02;98640.19;;;13.96;100.00
8627;BME280;4351;51.422;6.794;2022-09-17T12:58:42;98646.97;;;14.09;100.00
8627;BME280;4351;51.422;6.794;2022-09-17T13:01:21;98639.88;;;14.24;100.00
8627;BME280;4351;51.422;6.794;2022-09-17T13:03:54;98703.03;;;14.00;100.00
8627;BME280;4351;51.422;6.794;2022-09-17T13:06:38;98688.00;;;14.22;100.00
8627;BME280;4351;51.422;6.794;2022-09-17T13:12:15;98696.00;;;14.32;100.00
8627;BME280;4351;51.422;6.794;2022-09-17T13:18:09;98700.38;;;14.42;100.00
8627;BME280;4351;51.422;6.794;2022-09-17T13:20:58;98709.69;;;14.31;100.00
8627;BME280;4351;51.422;6.794;2022-09-17T13:23:37;98701.09;;;14.52;100.00
8627;BME280;4351;51.422;6.794;2022-09-17T13:26:07;98709.91;;;14.63;100.00
8627;BME280;4351;51.422;6.794;2022-09-17T13:28:40;98709.56;;;14.74;100.00
8627;BME280;4351;51.422;6.794;2022-09-17T13:31:18;98722.78;;;14.94;100.00
8627;BME280;4351;51.422;6.794;2022-09-17T13:33:54;98766.19;;;14.77;100.00
8627;BME280;4351;51.422;6.794;2022-09-17T13:36:39;98790.50;;;14.87;100.00
8627;BME280;4351;51.422;6.794;2022-09-17T13:39:09;98854.44;;;14.90;100.00
8627;BME280;4351;51.422;6.794;2022-09-17T13:41:40;98995.75;;;14.53;100.00
8627;BME280;4351;51.422;6.794;2022-09-17T13:44:10;99122.22;;;12.88;100.00
8627;BME280;4351;51.422;6.794;2022-09-17T13:46:38;99101.31;;;12.32;100.00
8627;BME280;4351;51.422;6.794;2022-09-17T13:49:13;99056.34;;;12.21;100.00
8627;BME280;4351;51.422;6.794;2022-09-17T13:51:47;98996.66;;;11.84;100.00
8627;BME280;4351;51.422;6.794;2022-09-17T13:54:19;98956.00;;;11.56;100.00
8627;BME280;4351;51.422;6.794;2022-09-17T13:57:01;98893.50;;;11.51;100.00
8627;BME280;4351;51.422;6.794;2022-09-17T13:59:36;98818.50;;;11.45;100.00
8627;BME280;4351;51.422;6.794;2022-09-17T14:02:33;98789.75;;;11.54;100.00